createdAt,value
2023-05-13T00:01:17.379Z,101955.75
2023-05-13T00:03:44.931Z,101948.56
2023-05-13T00:06:11.574Z,101948.56
2023-05-13T00:08:38.265Z,101944.78
2023-05-13T00:11:05.040Z,101949.41
2023-05-13T00:13:31.586Z,101940.31
2023-05-13T00:15:58.119Z,101945.81
2023-05-13T00:18:24.889Z,101945.81
2023-05-13T00:20:51.834Z,101932.09
2023-05-13T00:23:18.323Z,101942.22
2023-05-13T00:25:44.826Z,101942.22
2023-05-13T00:28:13.966Z,101934.84
2023-05-13T00:30:43.756Z,101935.69
2023-05-13T00:33:10.372Z,101941.19
2023-05-13T00:35:36.880Z,101938.44
2023-05-13T00:38:03.471Z,101942.03
2023-05-13T00:40:29.956Z,101938.44
2023-05-13T00:42:56.590Z,101938.44
2023-05-13T00:45:23.179Z,101943.91
2023-05-13T00:47:50.190Z,101942.91
2023-05-13T00:50:16.837Z,101948.38
2023-05-13T00:52:44.311Z,101948.22
2023-05-13T00:55:11.670Z,101944.63
2023-05-13T00:57:40.246Z,101943.75
2023-05-13T01:00:07.946Z,101946.50
2023-05-13T01:03:13.016Z,101941.00
2023-05-13T01:06:01.291Z,101943.06
2023-05-13T01:08:53.468Z,101942.03
2023-05-13T01:11:27.983Z,101941.34
2023-05-13T01:14:03.013Z,101937.56
2023-05-13T01:16:36.290Z,101935.31
2023-05-13T01:19:12.998Z,101944.41
2023-05-13T01:21:40.143Z,101941.66
2023-05-13T01:24:07.181Z,101940.63
2023-05-13T01:26:33.703Z,101940.50
2023-05-13T01:29:00.799Z,101938.75
2023-05-13T01:31:28.116Z,101944.09
2023-05-13T01:33:54.868Z,101937.75
2023-05-13T01:36:21.886Z,101935.00
2023-05-13T01:38:49.291Z,101944.09
2023-05-13T01:41:16.109Z,101943.06
2023-05-13T01:43:42.788Z,101946.84
2023-05-13T01:46:13.127Z,101942.03
2023-05-13T01:48:39.930Z,101947.69
2023-05-13T01:51:07.048Z,101944.09
2023-05-13T01:53:33.725Z,101946.84
2023-05-13T01:56:00.194Z,101941.34
2023-05-13T01:58:26.744Z,101946.84
2023-05-13T02:00:54.007Z,101941.34
2023-05-13T02:03:20.703Z,101943.22
2023-05-13T02:05:48.848Z,101939.59
2023-05-13T02:08:15.422Z,101942.34
2023-05-13T02:10:42.053Z,101934.13
2023-05-13T02:13:09.148Z,101937.88
2023-05-13T02:15:35.811Z,101937.88
2023-05-13T02:18:02.414Z,101936.84
2023-05-13T02:20:29.809Z,101939.59
2023-05-13T02:22:56.405Z,101938.75
2023-05-13T02:25:22.870Z,101943.38
2023-05-13T02:27:49.455Z,101946.13
2023-05-13T02:30:16.023Z,101942.50
2023-05-13T02:32:44.637Z,101943.38
2023-05-13T02:35:11.356Z,101950.75
2023-05-13T02:37:38.067Z,101950.75
2023-05-13T02:40:05.389Z,101948.00
2023-05-13T02:42:32.147Z,101947.13
2023-05-13T02:44:59.470Z,101941.66
2023-05-13T02:47:28.325Z,101940.78
2023-05-13T02:49:58.174Z,101940.78
2023-05-13T02:52:24.727Z,101937.03
2023-05-13T02:54:51.476Z,101931.72
2023-05-13T02:57:18.113Z,101934.44
2023-05-13T02:59:45.370Z,101935.31
2023-05-13T03:02:12.020Z,101939.09
2023-05-13T03:04:38.542Z,101941.81
2023-05-13T03:07:05.396Z,101934.44
2023-05-13T03:09:31.932Z,101932.72
2023-05-13T03:11:59.877Z,101931.88
2023-05-13T03:14:26.956Z,101939.09
2023-05-13T03:16:53.698Z,101932.72
2023-05-13T03:19:20.382Z,101939.09
2023-05-13T03:21:46.991Z,101938.22
2023-05-13T03:24:15.733Z,101934.78
2023-05-13T03:26:42.367Z,101940.28
2023-05-13T03:29:09.150Z,101932.91
2023-05-13T03:31:37.461Z,101938.38
2023-05-13T03:34:05.379Z,101937.38
2023-05-13T03:36:33.250Z,101939.41
2023-05-13T03:39:00.621Z,101938.56
2023-05-13T03:41:28.234Z,101943.19
2023-05-13T03:43:56.998Z,101933.06
2023-05-13T03:46:23.728Z,101943.19
2023-05-13T03:48:50.431Z,101941.31
2023-05-13T03:51:17.068Z,101943.19
2023-05-13T03:53:44.365Z,101949.53
2023-05-13T03:56:10.876Z,101945.06
2023-05-13T03:58:37.383Z,101942.31
2023-05-13T04:01:04.241Z,101947.81
2023-05-13T04:03:31.372Z,101948.66
2023-05-13T04:05:57.966Z,101945.06
2023-05-13T04:08:24.455Z,101948.66
2023-05-13T04:10:51.059Z,101945.06
2023-05-13T04:13:18.435Z,101947.81
2023-05-13T04:15:44.972Z,101952.44
2023-05-13T04:18:11.447Z,101951.59
2023-05-13T04:20:39.555Z,101948.84
2023-05-13T04:23:06.710Z,101949.69
2023-05-13T04:25:35.595Z,101952.44
2023-05-13T04:28:02.180Z,101951.59
2023-05-13T04:30:32.201Z,101955.34
2023-05-13T04:32:58.738Z,101955.19
2023-05-13T04:35:25.413Z,101952.59
2023-05-13T04:37:56.254Z,101952.59
2023-05-13T04:40:23.225Z,101954.50
2023-05-13T04:42:55.024Z,101961.69
2023-05-13T04:45:31.656Z,101951.91
2023-05-13T04:47:58.642Z,101960.16
2023-05-13T04:50:25.404Z,101965.47
2023-05-13T04:52:54.618Z,101958.25
2023-05-13T04:55:21.338Z,101965.47
2023-05-13T04:57:49.065Z,101963.59
2023-05-13T05:00:16.157Z,101968.22
2023-05-13T05:02:44.608Z,101973.69
2023-05-13T05:05:11.191Z,101971.97
2023-05-13T05:07:40.506Z,101981.06
2023-05-13T05:10:08.579Z,101976.59
2023-05-13T05:12:38.220Z,101974.72
2023-05-13T05:15:06.313Z,101978.31
2023-05-13T05:17:34.092Z,101982.09
2023-05-13T05:20:02.752Z,101990.31
2023-05-13T05:22:29.412Z,101991.19
2023-05-13T05:24:56.655Z,101988.44
2023-05-13T05:27:24.899Z,101996.66
2023-05-13T05:29:51.498Z,101993.91
2023-05-13T05:32:18.077Z,101991.19
2023-05-13T05:34:44.707Z,101997.50
2023-05-13T05:37:11.201Z,102003.00
2023-05-13T05:39:38.641Z,101999.22
2023-05-13T05:42:05.844Z,102003.88
2023-05-13T05:44:32.613Z,101998.53
2023-05-13T05:46:59.067Z,102003.16
2023-05-13T05:49:25.909Z,102006.78
2023-05-13T05:51:54.842Z,102001.13
2023-05-13T05:54:21.749Z,102002.16
2023-05-13T05:56:48.210Z,102009.34
2023-05-13T05:59:14.723Z,102003.88
2023-05-13T06:01:41.354Z,102000.25
2023-05-13T06:04:07.962Z,102003.00
2023-05-13T06:06:34.913Z,102009.34
2023-05-13T06:09:01.512Z,102008.50
2023-05-13T06:11:28.197Z,102011.06
2023-05-13T06:13:54.755Z,102009.34
2023-05-13T06:16:21.375Z,102011.94
2023-05-13T06:18:47.948Z,102012.94
2023-05-13T06:21:14.509Z,102018.44
2023-05-13T06:23:41.258Z,102021.19
2023-05-13T06:26:07.787Z,102015.69
2023-05-13T06:28:35.080Z,102017.41
2023-05-13T06:31:01.743Z,102013.81
2023-05-13T06:33:28.324Z,102017.41
2023-05-13T06:35:56.024Z,102016.56
2023-05-13T06:38:23.801Z,102019.28
2023-05-13T06:40:55.005Z,102015.53
2023-05-13T06:43:27.751Z,102022.91
2023-05-13T06:45:57.751Z,102019.13
2023-05-13T06:48:26.244Z,102025.47
2023-05-13T06:50:52.810Z,102024.63
2023-05-13T06:53:19.279Z,102025.47
2023-05-13T06:55:46.068Z,102023.59
2023-05-13T06:58:12.565Z,102028.22
2023-05-13T07:00:40.955Z,102026.34
2023-05-13T07:03:07.698Z,102021.69
2023-05-13T07:05:34.581Z,102019.97
2023-05-13T07:08:06.549Z,102022.56
2023-05-13T07:10:34.158Z,102032.69
2023-05-13T07:13:01.653Z,102027.19
2023-05-13T07:15:28.511Z,102030.78
2023-05-13T07:17:55.016Z,102031.81
2023-05-13T07:20:22.893Z,102032.69
2023-05-13T07:22:50.047Z,102031.66
2023-05-13T07:25:17.542Z,102038.00
2023-05-13T07:27:44.622Z,102041.59
2023-05-13T07:30:12.560Z,102032.34
2023-05-13T07:32:39.616Z,102029.59
2023-05-13T07:35:07.202Z,102030.63
2023-05-13T07:37:33.688Z,102033.19
2023-05-13T07:40:00.176Z,102028.75
2023-05-13T07:42:29.834Z,102032.34
2023-05-13T07:44:56.548Z,102034.91
2023-05-13T07:47:23.346Z,102035.78
2023-05-13T07:49:50.498Z,102033.03
2023-05-13T07:52:17.059Z,102033.91
2023-05-13T07:54:43.551Z,102039.38
2023-05-13T07:57:10.039Z,102040.25
2023-05-13T07:59:36.604Z,102033.91
2023-05-13T08:02:03.153Z,102037.34
2023-05-13T08:04:29.641Z,102041.09
2023-05-13T08:06:56.272Z,102042.00
2023-05-13T08:09:22.897Z,102045.59
2023-05-13T08:11:49.503Z,102044.72
2023-05-13T08:14:15.970Z,102039.06
2023-05-13T08:16:42.530Z,102035.47
2023-05-13T08:19:09.586Z,102039.94
2023-05-13T08:21:36.186Z,102048.16
2023-05-13T08:24:02.822Z,102040.78
2023-05-13T08:26:29.307Z,102036.16
2023-05-13T08:28:57.172Z,102043.53
2023-05-13T08:31:25.185Z,102043.53
2023-05-13T08:33:53.484Z,102052.47
2023-05-13T08:36:20.650Z,102037.03
2023-05-13T08:38:47.472Z,102038.75
2023-05-13T08:41:14.783Z,102046.97
2023-05-13T08:43:46.069Z,102039.59
2023-05-13T08:46:12.886Z,102040.63
2023-05-13T08:48:41.308Z,102035.16
2023-05-13T08:51:09.175Z,102039.59
2023-05-13T08:53:38.519Z,102043.22
2023-05-13T08:56:06.871Z,102030.50
2023-05-13T08:58:33.450Z,102045.09
2023-05-13T09:01:00.148Z,102038.75
2023-05-13T09:03:29.027Z,102033.09
2023-05-13T09:05:55.564Z,102029.66
2023-05-13T09:08:22.111Z,102030.50
2023-05-13T09:10:49.214Z,102030.50
2023-05-13T09:13:18.581Z,102031.38
2023-05-13T09:15:45.388Z,102035.16
2023-05-13T09:18:12.825Z,102034.13
2023-05-13T09:20:39.415Z,102035.16
2023-05-13T09:23:08.160Z,102029.50
2023-05-13T09:25:36.457Z,102037.72
2023-05-13T09:28:05.812Z,102032.22
2023-05-13T09:30:43.145Z,102029.31
2023-05-13T09:33:21.822Z,102027.59
2023-05-13T09:35:53.618Z,102022.97
2023-05-13T09:38:25.069Z,102028.47
2023-05-13T09:40:56.109Z,102011.16
2023-05-13T09:43:25.214Z,102014.75
2023-05-13T09:45:56.591Z,102010.13
2023-05-13T09:48:25.839Z,102010.97
2023-05-13T09:50:53.564Z,102015.59
2023-05-13T09:53:22.989Z,102011.84
2023-05-13T09:55:51.679Z,102009.09
2023-05-13T09:58:20.403Z,102004.47
2023-05-13T10:00:47.879Z,102015.44
2023-05-13T10:03:15.241Z,102008.91
2023-05-13T10:05:42.399Z,102005.31
2023-05-13T10:08:13.461Z,102002.41
2023-05-13T10:10:41.808Z,102003.44
2023-05-13T10:13:10.960Z,102002.41
2023-05-13T10:15:52.839Z,102005.84
2023-05-13T10:18:22.206Z,101996.91
2023-05-13T10:20:55.377Z,101985.09
2023-05-13T10:23:24.304Z,101992.28
2023-05-13T10:25:53.075Z,101990.41
2023-05-13T10:28:20.255Z,101983.03
2023-05-13T10:30:53.828Z,101985.59
2023-05-13T10:33:21.231Z,101985.59
2023-05-13T10:35:57.550Z,101984.59
2023-05-13T10:38:45.097Z,101987.31
2023-05-13T10:41:30.326Z,101984.59
2023-05-13T10:43:58.451Z,101984.59
2023-05-13T10:46:25.562Z,101981.84
2023-05-13T10:48:58.277Z,101989.03
2023-05-13T10:51:25.898Z,101983.56
2023-05-13T10:53:54.655Z,101988.00
2023-05-13T10:56:23.090Z,101980.63
2023-05-13T10:59:01.474Z,101987.84
2023-05-13T11:01:32.101Z,101984.25
2023-05-13T11:04:04.708Z,101984.25
2023-05-13T11:06:36.937Z,101979.63
2023-05-13T11:09:22.846Z,101980.47
2023-05-13T11:11:53.939Z,101976.00
2023-05-13T11:14:22.345Z,101976.00
2023-05-13T11:17:00.680Z,101963.84
2023-05-13T11:19:30.621Z,101972.25
2023-05-13T11:21:59.203Z,101972.25
2023-05-13T11:24:26.300Z,101975.84
2023-05-13T11:26:58.976Z,101967.44
2023-05-13T11:29:33.611Z,101961.94
2023-05-13T11:32:03.108Z,101957.50
2023-05-13T11:34:30.976Z,101965.91
2023-05-13T11:37:09.509Z,101966.59
2023-05-13T11:39:39.051Z,101957.50
2023-05-13T11:42:10.666Z,101956.47
2023-05-13T11:44:45.659Z,101955.44
2023-05-13T11:47:12.378Z,101963.66
2023-05-13T11:49:40.324Z,101961.78
2023-05-13T11:52:09.360Z,101961.63
2023-05-13T11:54:50.620Z,101962.47
2023-05-13T11:57:26.086Z,101953.38
2023-05-13T12:00:07.004Z,101953.38
2023-05-13T12:02:44.397Z,101953.38
2023-05-13T12:05:11.799Z,101948.75
2023-05-13T12:07:39.547Z,101946.88
2023-05-13T12:10:08.404Z,101938.63
2023-05-13T12:12:38.413Z,101938.63
2023-05-13T12:15:13.284Z,101941.38
2023-05-13T12:17:40.421Z,101941.72
2023-05-13T12:20:10.635Z,101942.75
2023-05-13T12:22:48.781Z,101930.56
2023-05-13T12:25:47.709Z,101935.03
2023-05-13T12:28:17.218Z,101926.78
2023-05-13T12:30:53.993Z,101928.69
2023-05-13T12:33:22.734Z,101926.78
2023-05-13T12:35:51.704Z,101924.91
2023-05-13T12:38:20.596Z,101932.97
2023-05-13T12:40:48.818Z,101934.69
2023-05-13T12:43:19.631Z,101938.28
2023-05-13T12:45:48.321Z,101934.69
2023-05-13T12:48:14.960Z,101932.81
2023-05-13T12:50:41.535Z,101925.44
2023-05-13T12:53:08.058Z,101923.53
2023-05-13T12:55:39.822Z,101920.78
2023-05-13T12:58:10.960Z,101922.50
2023-05-13T13:00:38.151Z,101925.25
2023-05-13T13:03:04.870Z,101924.22
2023-05-13T13:05:31.787Z,101924.22
2023-05-13T13:07:58.311Z,101928.69
2023-05-13T13:10:24.794Z,101931.44
2023-05-13T13:12:52.262Z,101933.16
2023-05-13T13:15:18.952Z,101935.88
2023-05-13T13:17:45.467Z,101926.63
2023-05-13T13:20:12.524Z,101920.28
2023-05-13T13:22:39.106Z,101926.63
2023-05-13T13:25:06.481Z,101923.72
2023-05-13T13:27:34.622Z,101927.31
2023-05-13T13:30:01.169Z,101920.97
2023-05-13T13:32:27.959Z,101919.06
2023-05-13T13:34:54.545Z,101914.63
2023-05-13T13:37:21.207Z,101911.69
2023-05-13T13:39:47.760Z,101910.84
2023-05-13T13:42:14.387Z,101913.41
2023-05-13T13:44:40.887Z,101905.19
2023-05-13T13:47:07.409Z,101917.03
2023-05-13T13:49:33.952Z,101919.75
2023-05-13T13:52:00.436Z,101912.38
2023-05-13T13:54:27.000Z,101904.16
2023-05-13T13:56:53.561Z,101905.00
2023-05-13T13:59:20.133Z,101903.97
2023-05-13T14:01:46.813Z,101896.59
2023-05-13T14:04:23.593Z,101894.72
2023-05-13T14:06:51.414Z,101891.13
2023-05-13T14:09:18.464Z,101894.72
2023-05-13T14:11:45.322Z,101892.66
2023-05-13T14:14:12.004Z,101886.31
2023-05-13T14:16:38.674Z,101875.31
2023-05-13T14:19:05.308Z,101879.78
2023-05-13T14:21:32.459Z,101883.38
2023-05-13T14:23:59.107Z,101889.56
2023-05-13T14:26:26.171Z,101883.03
2023-05-13T14:28:52.709Z,101880.28
2023-05-13T14:31:19.298Z,101869.31
2023-05-13T14:33:45.838Z,101871.06
2023-05-13T14:36:16.085Z,101875.53
2023-05-13T14:38:43.487Z,101876.38
2023-05-13T14:41:10.414Z,101873.47
2023-05-13T14:43:36.953Z,101873.47
2023-05-13T14:46:03.568Z,101866.94
2023-05-13T14:48:30.051Z,101864.03
2023-05-13T14:50:56.509Z,101870.38
2023-05-13T14:53:23.018Z,101869.34
2023-05-13T14:55:51.376Z,101871.06
2023-05-13T14:58:18.324Z,101860.94
2023-05-13T15:00:44.983Z,101858.00
2023-05-13T15:03:11.986Z,101855.09
2023-05-13T15:05:38.800Z,101852.16
2023-05-13T15:08:05.272Z,101851.13
2023-05-13T15:10:31.743Z,101850.09
2023-05-13T15:12:58.960Z,101843.56
2023-05-13T15:15:25.614Z,101851.63
2023-05-13T15:17:52.769Z,101845.97
2023-05-13T15:20:19.471Z,101847.69
2023-05-13T15:22:46.171Z,101843.91
2023-05-13T15:25:12.723Z,101841.84
2023-05-13T15:27:39.307Z,101850.94
2023-05-13T15:30:06.520Z,101850.75
2023-05-13T15:32:33.096Z,101843.22
2023-05-13T15:34:59.581Z,101840.50
2023-05-13T15:37:26.120Z,101833.09
2023-05-13T15:39:52.564Z,101838.41
2023-05-13T15:42:19.056Z,101825.53
2023-05-13T15:44:45.730Z,101834.47
2023-05-13T15:47:12.541Z,101831.53
2023-05-13T15:49:39.256Z,101833.25
2023-05-13T15:52:07.195Z,101824.84
2023-05-13T15:54:34.042Z,101826.56
2023-05-13T15:57:00.779Z,101822.78
2023-05-13T15:59:27.476Z,101819.00
2023-05-13T16:01:54.047Z,101817.09
2023-05-13T16:04:20.765Z,101823.28
2023-05-13T16:06:47.308Z,101822.22
2023-05-13T16:09:13.841Z,101819.31
2023-05-13T16:11:40.311Z,101823.78
2023-05-13T16:14:08.603Z,101824.63
2023-05-13T16:16:35.167Z,101815.34
2023-05-13T16:19:03.601Z,101819.81
2023-05-13T16:21:31.669Z,101818.78
2023-05-13T16:23:58.373Z,101816.88
2023-05-13T16:26:24.846Z,101813.09
2023-05-13T16:28:51.732Z,101816.69
2023-05-13T16:31:18.308Z,101822.19
2023-05-13T16:33:44.742Z,101813.78
2023-05-13T16:36:11.954Z,101810.00
2023-05-13T16:38:41.236Z,101813.59
2023-05-13T16:41:08.055Z,101814.47
2023-05-13T16:43:34.586Z,101819.78
2023-05-13T16:46:01.138Z,101816.00
2023-05-13T16:48:27.667Z,101819.59
2023-05-13T16:50:54.245Z,101816.66
2023-05-13T16:53:22.312Z,101815.63
2023-05-13T16:55:49.700Z,101814.59
2023-05-13T16:58:16.594Z,101819.91
2023-05-13T17:00:43.422Z,101820.59
2023-05-13T17:03:10.386Z,101816.63
2023-05-13T17:05:37.655Z,101819.00
2023-05-13T17:08:04.364Z,101813.19
2023-05-13T17:10:30.857Z,101819.50
2023-05-13T17:12:58.396Z,101812.19
2023-05-13T17:15:25.237Z,101814.50
2023-05-13T17:17:51.758Z,101812.63
2023-05-13T17:20:19.598Z,101816.88
2023-05-13T17:22:47.376Z,101820.47
2023-05-13T17:25:14.616Z,101817.66
2023-05-13T17:27:41.291Z,101815.38
2023-05-13T17:30:08.525Z,101821.94
2023-05-13T17:32:35.699Z,101813.78
2023-05-13T17:35:03.993Z,101817.41
2023-05-13T17:37:30.659Z,101817.75
2023-05-13T17:40:00.545Z,101811.09
2023-05-13T17:42:28.928Z,101809.31
2023-05-13T17:44:55.493Z,101811.97
2023-05-13T17:47:22.398Z,101815.66
2023-05-13T17:49:48.886Z,101817.66
2023-05-13T17:52:15.463Z,101814.13
2023-05-13T17:54:41.957Z,101814.19
2023-05-13T17:57:10.914Z,101817.72
2023-05-13T17:59:37.564Z,101821.41
2023-05-13T18:02:04.152Z,101818.53
2023-05-13T18:04:30.663Z,101819.44
2023-05-13T18:06:57.109Z,101819.16
2023-05-13T18:09:23.546Z,101815.25
2023-05-13T18:11:49.983Z,101823.00
2023-05-13T18:14:16.426Z,101816.34
2023-05-13T18:16:42.992Z,101819.66
2023-05-13T18:19:09.699Z,101817.41
2023-05-13T18:21:36.345Z,101823.47
2023-05-13T18:24:02.951Z,101821.09
2023-05-13T18:26:29.626Z,101824.22
2023-05-13T18:28:56.093Z,101825.44
2023-05-13T18:31:22.889Z,101829.59
2023-05-13T18:33:49.390Z,101824.47
2023-05-13T18:36:15.923Z,101832.22
2023-05-13T18:38:42.452Z,101829.66
2023-05-13T18:41:09.227Z,101834.84
2023-05-13T18:43:35.716Z,101836.06
2023-05-13T18:46:02.393Z,101835.38
2023-05-13T18:48:28.982Z,101838.47
2023-05-13T18:50:55.546Z,101846.22
2023-05-13T18:53:22.170Z,101851.03
2023-05-13T18:55:48.751Z,101849.50
2023-05-13T18:58:15.518Z,101842.47
2023-05-13T19:00:42.500Z,101850.06
2023-05-13T19:03:09.160Z,101849.38
2023-05-13T19:05:35.829Z,101851.44
2023-05-13T19:08:03.277Z,101851.63
2023-05-13T19:10:29.881Z,101851.81
2023-05-13T19:12:56.464Z,101853.03
2023-05-13T19:15:25.145Z,101853.19
2023-05-13T19:17:52.936Z,101860.78
2023-05-13T19:20:19.559Z,101866.44
2023-05-13T19:22:46.687Z,101865.59
2023-05-13T19:25:13.229Z,101867.63
2023-05-13T19:27:39.761Z,101871.41
2023-05-13T19:30:07.232Z,101878.97
2023-05-13T19:32:34.053Z,101881.72
2023-05-13T19:35:01.201Z,101885.50
2023-05-13T19:37:27.839Z,101881.22
2023-05-13T19:39:54.347Z,101885.88
2023-05-13T19:42:21.710Z,101884.16
2023-05-13T19:44:48.182Z,101894.28
2023-05-13T19:47:14.726Z,101888.78
2023-05-13T19:49:41.416Z,101888.09
2023-05-13T19:52:07.911Z,101895.50
2023-05-13T19:54:34.378Z,101892.94
2023-05-13T19:57:00.894Z,101890.34
2023-05-13T19:59:27.665Z,101897.56
2023-05-13T20:01:54.149Z,101895.84
2023-05-13T20:04:20.725Z,101893.09
2023-05-13T20:06:47.227Z,101899.63
2023-05-13T20:09:14.386Z,101892.41
2023-05-13T20:11:41.016Z,101902.56
2023-05-13T20:14:07.578Z,101905.31
2023-05-13T20:16:34.586Z,101899.81
2023-05-13T20:19:01.203Z,101900.84
2023-05-13T20:21:27.722Z,101899.97
2023-05-13T20:23:54.200Z,101902.72
2023-05-13T20:26:20.648Z,101895.53
2023-05-13T20:28:47.769Z,101898.28
2023-05-13T20:31:14.887Z,101901.03
2023-05-13T20:33:41.868Z,101896.56
2023-05-13T20:36:08.353Z,101897.41
2023-05-13T20:38:34.994Z,101900.16
2023-05-13T20:41:01.461Z,101898.44
2023-05-13T20:43:27.952Z,101902.06
2023-05-13T20:45:54.587Z,101909.44
2023-05-13T20:48:21.285Z,101899.47
2023-05-13T20:50:47.813Z,101902.22
2023-05-13T20:53:14.457Z,101904.97
2023-05-13T20:55:40.906Z,101898.63
2023-05-13T20:58:07.405Z,101893.13
2023-05-13T21:00:33.905Z,101895.88
2023-05-13T21:03:00.786Z,101892.28
2023-05-13T21:05:27.714Z,101895.03
2023-05-13T21:07:54.244Z,101897.75
2023-05-13T21:10:21.546Z,101889.53
2023-05-13T21:12:48.368Z,101902.41
2023-05-13T21:15:14.974Z,101898.81
2023-05-13T21:17:41.588Z,101898.81
2023-05-13T21:20:08.953Z,101893.31
2023-05-13T21:22:35.458Z,101887.81
2023-05-13T21:25:01.987Z,101898.81
2023-05-13T21:27:28.558Z,101885.06
2023-05-13T21:29:55.044Z,101896.91
2023-05-13T21:32:21.656Z,101895.19
2023-05-13T21:34:48.101Z,101895.19
2023-05-13T21:37:16.720Z,101898.81
2023-05-13T21:39:43.187Z,101891.59
2023-05-13T21:42:09.714Z,101894.34
2023-05-13T21:44:36.163Z,101890.72
2023-05-13T21:47:02.855Z,101888.00
2023-05-13T21:49:29.392Z,101887.13
2023-05-13T21:51:55.874Z,101889.03
2023-05-13T21:54:22.700Z,101888.00
2023-05-13T21:56:49.416Z,101889.88
2023-05-13T21:59:15.904Z,101899.84
2023-05-13T22:01:42.354Z,101893.47
2023-05-13T22:04:08.950Z,101894.50
2023-05-13T22:06:35.502Z,101886.28
2023-05-13T22:09:02.126Z,101897.09
2023-05-13T22:11:28.645Z,101897.25
2023-05-13T22:13:55.258Z,101889.03
2023-05-13T22:16:22.086Z,101889.03
2023-05-13T22:18:48.967Z,101890.91
2023-05-13T22:21:15.610Z,101890.06
2023-05-13T22:23:42.105Z,101891.75
2023-05-13T22:26:08.681Z,101896.41
2023-05-13T22:28:35.266Z,101891.75
2023-05-13T22:31:01.823Z,101890.72
2023-05-13T22:33:28.406Z,101886.28
2023-05-13T22:35:54.949Z,101896.41
2023-05-13T22:38:21.401Z,101888.16
2023-05-13T22:40:47.948Z,101889.19
2023-05-13T22:43:14.394Z,101888.00
2023-05-13T22:45:41.005Z,101885.41
2023-05-13T22:48:08.204Z,101882.66
2023-05-13T22:50:34.892Z,101889.03
2023-05-13T22:53:01.381Z,101879.91
2023-05-13T22:55:27.941Z,101883.69
2023-05-13T22:57:54.736Z,101885.41
2023-05-13T23:00:21.418Z,101875.47
2023-05-13T23:02:48.142Z,101875.47
2023-05-13T23:05:14.943Z,101879.91
2023-05-13T23:07:41.689Z,101875.47
2023-05-13T23:10:08.648Z,101872.72
2023-05-13T23:12:35.147Z,101865.50
2023-05-13T23:15:01.878Z,101871.84
2023-05-13T23:17:28.494Z,101867.22
2023-05-13T23:19:55.153Z,101866.38
2023-05-13T23:22:21.631Z,101860.00
2023-05-13T23:24:48.112Z,101869.97
2023-05-13T23:27:14.700Z,101871.00
2023-05-13T23:29:41.751Z,101863.63
2023-05-13T23:32:08.276Z,101869.09
2023-05-13T23:34:34.898Z,101866.38
2023-05-13T23:37:01.359Z,101855.56
2023-05-13T23:39:27.810Z,101855.38
2023-05-13T23:41:54.305Z,101858.97
2023-05-13T23:44:20.960Z,101866.38
2023-05-13T23:46:47.446Z,101851.78
2023-05-13T23:49:13.958Z,101854.53
2023-05-13T23:51:40.595Z,101856.41
2023-05-13T23:54:08.252Z,101845.41
2023-05-13T23:56:35.006Z,101849.03
2023-05-13T23:59:01.651Z,101848.16
